createdAt,value
2024-05-09T00:01:55.295Z,14.98
2024-05-09T00:04:28.115Z,15.07
2024-05-09T00:07:01.894Z,13.95
2024-05-09T00:09:34.920Z,13.82
2024-05-09T00:12:08.669Z,13.18
2024-05-09T00:14:41.838Z,11.93
2024-05-09T00:17:15.502Z,12.50
2024-05-09T00:19:49.025Z,12.23
2024-05-09T00:22:22.263Z,10.50
2024-05-09T00:24:55.783Z,10.52
2024-05-09T00:27:29.061Z,10.68
2024-05-09T00:30:04.021Z,11.73
2024-05-09T00:32:37.926Z,10.77
2024-05-09T00:35:11.043Z,11.57
2024-05-09T00:37:43.745Z,11.88
2024-05-09T00:40:22.979Z,13.00
2024-05-09T00:43:04.016Z,10.75
2024-05-09T00:45:38.140Z,13.90
2024-05-09T00:48:14.238Z,11.77
2024-05-09T00:50:50.980Z,10.68
2024-05-09T00:53:23.898Z,9.30
2024-05-09T00:55:58.096Z,10.68
2024-05-09T00:58:32.300Z,9.73
2024-05-09T01:01:05.714Z,10.18
2024-05-09T01:03:42.460Z,12.65
2024-05-09T01:06:15.713Z,9.98
2024-05-09T01:08:50.261Z,10.82
2024-05-09T01:11:24.018Z,10.18
2024-05-09T01:14:00.465Z,10.57
2024-05-09T01:16:34.364Z,7.80
2024-05-09T01:19:08.570Z,7.00
2024-05-09T01:21:43.719Z,7.20
2024-05-09T01:24:16.578Z,7.78
2024-05-09T01:26:49.748Z,7.57
2024-05-09T01:29:22.386Z,6.22
2024-05-09T01:31:55.824Z,7.68
2024-05-09T01:34:29.366Z,6.38
2024-05-09T01:37:02.845Z,6.88
2024-05-09T01:39:35.895Z,6.80
2024-05-09T01:42:09.107Z,7.85
2024-05-09T01:44:41.836Z,6.35
2024-05-09T01:47:15.309Z,5.97
2024-05-09T01:49:47.932Z,5.80
2024-05-09T01:52:21.786Z,5.60
2024-05-09T01:54:54.483Z,5.05
2024-05-09T01:57:27.910Z,5.10
2024-05-09T02:00:06.067Z,5.40
2024-05-09T02:02:42.907Z,6.82
2024-05-09T02:05:16.452Z,6.35
2024-05-09T02:07:49.610Z,5.45
2024-05-09T02:10:32.317Z,5.28
2024-05-09T02:13:07.244Z,5.53
2024-05-09T02:15:43.470Z,8.30
2024-05-09T02:18:17.129Z,5.88
2024-05-09T02:20:54.658Z,16.35
2024-05-09T02:23:28.383Z,5.53
2024-05-09T02:26:05.110Z,7.13
2024-05-09T02:28:38.233Z,8.10
2024-05-09T02:31:20.436Z,5.40
2024-05-09T02:33:53.446Z,7.03
2024-05-09T02:36:26.977Z,5.95
2024-05-09T02:39:00.419Z,6.20
2024-05-09T02:41:32.950Z,7.35
2024-05-09T02:44:06.199Z,6.72
2024-05-09T02:46:38.925Z,8.23
2024-05-09T02:49:12.209Z,8.10
2024-05-09T02:51:45.636Z,11.13
2024-05-09T02:54:20.024Z,7.15
2024-05-09T02:56:54.257Z,5.85
2024-05-09T02:59:28.979Z,6.22
2024-05-09T03:02:03.371Z,5.97
2024-05-09T03:04:37.760Z,6.18
2024-05-09T03:07:11.458Z,5.85
2024-05-09T03:09:50.393Z,10.75
2024-05-09T03:12:24.915Z,5.38
2024-05-09T03:15:02.626Z,5.18
2024-05-09T03:17:37.477Z,6.38
2024-05-09T03:20:20.395Z,5.57
2024-05-09T03:22:58.748Z,9.23
2024-05-09T03:25:35.819Z,10.07
2024-05-09T03:28:11.237Z,10.25
2024-05-09T03:30:45.550Z,15.05
2024-05-09T03:33:20.901Z,10.85
2024-05-09T03:35:55.027Z,11.30
2024-05-09T03:38:29.661Z,11.05
2024-05-09T03:41:04.534Z,10.68
2024-05-09T03:43:38.438Z,11.45
2024-05-09T03:46:12.875Z,15.38
2024-05-09T03:48:48.971Z,10.93
2024-05-09T03:51:28.318Z,10.27
2024-05-09T03:54:06.970Z,11.48
2024-05-09T03:56:41.731Z,11.60
2024-05-09T03:59:16.892Z,10.25
2024-05-09T04:01:51.955Z,9.60
2024-05-09T04:04:25.328Z,11.77
2024-05-09T04:06:58.626Z,12.32
2024-05-09T04:09:32.187Z,11.52
2024-05-09T04:12:10.315Z,10.32
2024-05-09T04:14:47.234Z,10.63
2024-05-09T04:17:20.644Z,9.88
2024-05-09T04:19:54.658Z,11.18
2024-05-09T04:22:28.611Z,10.57
2024-05-09T04:25:02.184Z,11.02
2024-05-09T04:27:35.948Z,11.75
2024-05-09T04:30:15.476Z,10.90
2024-05-09T04:32:55.508Z,11.10
2024-05-09T04:35:29.482Z,10.07
2024-05-09T04:38:03.827Z,9.57
2024-05-09T04:40:40.291Z,10.05
2024-05-09T04:43:22.700Z,9.35
2024-05-09T04:45:57.232Z,9.73
2024-05-09T04:48:31.765Z,8.52
2024-05-09T04:51:08.476Z,9.23
2024-05-09T04:53:41.537Z,10.50
2024-05-09T04:56:14.729Z,9.90
2024-05-09T04:58:48.310Z,9.05
2024-05-09T05:01:22.159Z,8.63
2024-05-09T05:03:56.269Z,8.85
2024-05-09T05:06:30.327Z,9.20
2024-05-09T05:09:04.623Z,10.43
2024-05-09T05:11:39.335Z,11.00
2024-05-09T05:14:16.848Z,10.30
2024-05-09T05:16:54.067Z,10.52
2024-05-09T05:19:32.039Z,9.15
2024-05-09T05:22:10.036Z,10.32
2024-05-09T05:24:46.080Z,8.80
2024-05-09T05:27:24.625Z,8.63
2024-05-09T05:29:59.709Z,9.35
2024-05-09T05:32:35.089Z,9.10
2024-05-09T05:35:10.803Z,9.68
2024-05-09T05:37:46.082Z,8.38
2024-05-09T05:40:28.141Z,8.77
2024-05-09T05:43:12.813Z,9.15
2024-05-09T05:45:46.479Z,8.35
2024-05-09T05:48:21.713Z,8.27
2024-05-09T05:50:56.453Z,8.93
2024-05-09T05:53:34.266Z,8.80
2024-05-09T05:56:12.749Z,8.05
2024-05-09T05:58:47.733Z,8.48
2024-05-09T06:01:22.351Z,7.93
2024-05-09T06:04:01.181Z,7.72
2024-05-09T06:06:36.656Z,9.68
2024-05-09T06:09:18.248Z,7.97
2024-05-09T06:11:53.267Z,7.15
2024-05-09T06:14:28.008Z,7.75
2024-05-09T06:17:01.868Z,7.25
2024-05-09T06:19:37.578Z,7.38
2024-05-09T06:22:13.401Z,6.45
2024-05-09T06:24:47.985Z,6.40
2024-05-09T06:27:23.311Z,7.32
2024-05-09T06:29:58.544Z,6.47
2024-05-09T06:32:35.584Z,6.28
2024-05-09T06:35:14.628Z,8.23
2024-05-09T06:37:57.829Z,6.35
2024-05-09T06:40:37.797Z,6.30
2024-05-09T06:43:22.930Z,6.85
2024-05-09T06:45:57.788Z,6.13
2024-05-09T06:48:31.876Z,6.50
2024-05-09T06:51:06.828Z,5.97
2024-05-09T06:53:44.008Z,5.38
2024-05-09T06:56:18.589Z,5.65
2024-05-09T06:58:53.403Z,6.82
2024-05-09T07:01:32.422Z,5.65
2024-05-09T07:04:08.283Z,5.30
2024-05-09T07:06:43.299Z,7.30
2024-05-09T07:09:18.689Z,5.00
2024-05-09T07:11:53.573Z,3.85
2024-05-09T07:14:28.848Z,4.20
2024-05-09T07:17:03.254Z,5.93
2024-05-09T07:19:43.856Z,4.35
2024-05-09T07:22:19.256Z,4.78
2024-05-09T07:24:53.937Z,4.53
2024-05-09T07:27:41.324Z,6.32
2024-05-09T07:30:22.969Z,4.85
2024-05-09T07:33:07.689Z,5.13
2024-05-09T07:35:42.955Z,4.78
2024-05-09T07:38:17.716Z,5.40
2024-05-09T07:40:58.320Z,4.82
2024-05-09T07:43:33.731Z,4.45
2024-05-09T07:47:03.843Z,5.57
2024-05-09T07:50:53.203Z,6.22
2024-05-09T07:53:21.921Z,8.70
2024-05-09T07:55:06.090Z,8.00
2024-05-09T07:57:43.825Z,6.38
2024-05-09T08:00:26.795Z,6.57
2024-05-09T08:03:07.354Z,9.25
2024-05-09T08:05:45.761Z,10.07
2024-05-09T08:08:21.008Z,11.38
2024-05-09T08:10:55.958Z,8.45
2024-05-09T08:13:30.355Z,7.38
2024-05-09T08:16:05.261Z,6.35
2024-05-09T08:18:40.867Z,6.28
2024-05-09T08:21:25.906Z,6.55
2024-05-09T08:24:00.897Z,5.18
2024-05-09T08:26:36.388Z,4.38
2024-05-09T08:29:15.846Z,5.00
2024-05-09T08:31:50.164Z,8.38
2024-05-09T08:34:27.482Z,6.80
2024-05-09T08:37:10.096Z,4.78
2024-05-09T08:39:50.727Z,5.55
2024-05-09T08:42:27.824Z,6.90
2024-05-09T08:45:03.344Z,7.97
2024-05-09T08:47:38.217Z,6.45
2024-05-09T08:50:24.327Z,6.50
2024-05-09T08:53:13.863Z,6.82
2024-05-09T08:55:50.382Z,8.60
2024-05-09T08:58:27.251Z,8.82
2024-05-09T09:01:02.952Z,9.23
2024-05-09T09:03:49.676Z,7.40
2024-05-09T09:06:29.480Z,7.63
2024-05-09T09:09:04.542Z,10.02
2024-05-09T09:11:40.200Z,13.15
2024-05-09T09:14:17.556Z,13.52
2024-05-09T09:16:58.743Z,9.85
2024-05-09T09:19:35.098Z,9.48
2024-05-09T09:22:15.209Z,7.93
2024-05-09T09:24:50.682Z,7.68
2024-05-09T09:27:26.773Z,6.70
2024-05-09T09:30:00.974Z,7.50
2024-05-09T09:32:36.796Z,8.75
2024-05-09T09:35:11.338Z,8.20
2024-05-09T09:37:45.501Z,8.20
2024-05-09T09:40:32.148Z,6.57
2024-05-09T09:43:09.760Z,7.18
2024-05-09T09:45:45.192Z,8.43
2024-05-09T09:48:19.826Z,7.50
2024-05-09T09:51:02.175Z,32.22
2024-05-09T09:53:38.475Z,10.60
2024-05-09T09:56:14.254Z,34.85
2024-05-09T09:58:51.947Z,24.30
2024-05-09T10:01:25.810Z,12.32
2024-05-09T10:04:08.590Z,12.98
2024-05-09T10:06:47.112Z,10.40
2024-05-09T10:09:23.237Z,9.02
2024-05-09T10:12:00.247Z,6.88
2024-05-09T10:14:43.103Z,5.15
2024-05-09T10:17:17.973Z,5.13
2024-05-09T10:19:52.913Z,5.00
2024-05-09T10:22:31.079Z,5.60
2024-05-09T10:25:15.111Z,5.05
2024-05-09T10:27:59.047Z,5.18
2024-05-09T10:30:36.287Z,5.88
2024-05-09T10:33:14.973Z,5.38
2024-05-09T10:35:57.604Z,5.47
2024-05-09T10:38:31.099Z,9.63
2024-05-09T10:41:04.654Z,14.35
2024-05-09T10:43:41.776Z,10.10
2024-05-09T10:46:17.088Z,43.05
2024-05-09T10:49:04.259Z,14.25
2024-05-09T10:51:39.829Z,34.85
2024-05-09T10:54:13.084Z,27.50
2024-05-09T10:56:47.000Z,81.10
2024-05-09T10:59:20.762Z,35.88
2024-05-09T11:01:57.304Z,55.28
2024-05-09T11:04:32.997Z,60.40
2024-05-09T11:07:10.427Z,16.67
2024-05-09T11:09:49.718Z,21.10
2024-05-09T11:12:24.770Z,39.85
2024-05-09T11:14:58.843Z,23.63
2024-05-09T11:17:40.401Z,13.05
2024-05-09T11:20:20.061Z,16.58
2024-05-09T11:23:03.605Z,11.40
2024-05-09T11:25:38.505Z,14.82
2024-05-09T11:28:12.172Z,10.57
2024-05-09T11:30:46.634Z,9.30
2024-05-09T11:33:22.063Z,9.35
2024-05-09T11:36:00.241Z,9.27
2024-05-09T11:38:34.373Z,10.60
2024-05-09T11:41:11.555Z,9.52
2024-05-09T11:43:44.794Z,11.35
2024-05-09T11:46:18.453Z,10.57
2024-05-09T11:48:52.224Z,9.27
2024-05-09T11:51:25.567Z,8.13
2024-05-09T11:53:59.663Z,8.40
2024-05-09T11:56:32.902Z,8.18
2024-05-09T11:59:06.618Z,8.73
2024-05-09T12:01:40.595Z,11.07
2024-05-09T12:04:18.215Z,8.60
2024-05-09T12:06:56.369Z,8.88
2024-05-09T12:09:30.178Z,8.77
2024-05-09T12:12:07.549Z,8.52
2024-05-09T12:14:42.179Z,9.00
2024-05-09T12:17:19.520Z,9.25
2024-05-09T12:19:56.405Z,7.82
2024-05-09T12:22:36.227Z,7.50
2024-05-09T12:25:11.094Z,7.50
2024-05-09T12:27:45.074Z,7.00
2024-05-09T12:30:29.083Z,11.15
2024-05-09T12:33:15.823Z,9.13
2024-05-09T12:35:50.957Z,6.80
2024-05-09T12:38:24.889Z,7.03
2024-05-09T12:41:02.408Z,9.32
2024-05-09T12:43:35.991Z,9.40
2024-05-09T12:46:15.516Z,9.25
2024-05-09T12:49:01.513Z,9.85
2024-05-09T12:51:35.394Z,7.43
2024-05-09T12:54:12.887Z,8.20
2024-05-09T12:56:46.244Z,7.95
2024-05-09T12:59:19.859Z,8.10
2024-05-09T13:01:56.498Z,7.47
2024-05-09T13:04:33.484Z,7.28
2024-05-09T13:07:11.103Z,7.30
2024-05-09T13:09:48.155Z,8.57
2024-05-09T13:12:30.068Z,8.52
2024-05-09T13:15:07.032Z,7.50
2024-05-09T13:17:49.469Z,7.38
2024-05-09T13:20:29.547Z,7.45
2024-05-09T13:23:12.295Z,8.18
2024-05-09T13:25:47.130Z,10.82
2024-05-09T13:28:24.973Z,7.70
2024-05-09T13:31:00.325Z,10.95
2024-05-09T13:33:37.946Z,8.00
2024-05-09T13:36:11.832Z,7.00
2024-05-09T13:38:44.887Z,9.20
2024-05-09T13:41:19.830Z,8.63
2024-05-09T13:43:58.443Z,7.10
2024-05-09T13:46:32.016Z,7.82
2024-05-09T13:49:11.813Z,7.40
2024-05-09T13:51:46.508Z,6.90
2024-05-09T13:54:22.889Z,7.22
2024-05-09T13:56:58.472Z,7.78
2024-05-09T13:59:32.670Z,7.25
2024-05-09T14:02:10.016Z,7.68
2024-05-09T14:04:44.276Z,7.70
2024-05-09T14:07:18.045Z,7.43
2024-05-09T14:09:58.784Z,6.75
2024-05-09T14:12:39.957Z,7.35
2024-05-09T14:15:17.830Z,7.13
2024-05-09T14:17:58.758Z,7.07
2024-05-09T14:20:33.455Z,6.93
2024-05-09T14:23:12.363Z,6.50
2024-05-09T14:25:47.247Z,6.88
2024-05-09T14:28:32.378Z,8.05
2024-05-09T14:31:10.892Z,7.80
2024-05-09T14:33:51.796Z,6.70
2024-05-09T14:36:27.764Z,6.47
2024-05-09T14:39:00.949Z,7.38
2024-05-09T14:41:34.122Z,6.70
2024-05-09T14:44:08.024Z,6.60
2024-05-09T14:46:52.957Z,6.78
2024-05-09T14:49:26.301Z,6.43
2024-05-09T14:52:03.029Z,7.13
2024-05-09T14:54:43.419Z,6.47
2024-05-09T14:57:18.005Z,7.03
2024-05-09T14:59:52.933Z,7.05
2024-05-09T15:02:29.310Z,6.28
2024-05-09T15:05:18.237Z,6.65
2024-05-09T15:07:51.583Z,6.88
2024-05-09T15:10:34.758Z,6.57
2024-05-09T15:13:14.572Z,7.05
2024-05-09T15:15:52.147Z,6.75
2024-05-09T15:18:31.064Z,6.50
2024-05-09T15:21:06.548Z,7.47
2024-05-09T15:23:47.527Z,6.70
2024-05-09T15:26:23.342Z,6.90
2024-05-09T15:28:56.451Z,7.40
2024-05-09T15:31:30.502Z,7.32
2024-05-09T15:34:10.372Z,6.75
2024-05-09T15:36:46.159Z,5.90
2024-05-09T15:39:19.596Z,6.50
2024-05-09T15:42:00.569Z,6.65
2024-05-09T15:44:35.588Z,6.72
2024-05-09T15:47:11.341Z,6.45
2024-05-09T15:49:51.046Z,6.28
2024-05-09T15:52:33.857Z,6.63
2024-05-09T15:55:11.683Z,6.50
2024-05-09T15:57:52.142Z,5.90
2024-05-09T16:00:37.821Z,5.45
2024-05-09T16:03:16.739Z,5.95
2024-05-09T16:05:50.332Z,6.30
2024-05-09T16:08:23.680Z,5.95
2024-05-09T16:10:58.358Z,6.18
2024-05-09T16:13:31.835Z,6.00
2024-05-09T16:16:06.848Z,6.03
2024-05-09T16:18:47.383Z,5.78
2024-05-09T16:21:20.399Z,5.40
2024-05-09T16:23:53.423Z,5.85
2024-05-09T16:26:26.028Z,5.75
2024-05-09T16:28:58.843Z,5.13
2024-05-09T16:31:36.485Z,16.30
2024-05-09T16:34:10.573Z,8.20
2024-05-09T16:36:45.985Z,7.22
2024-05-09T16:39:19.325Z,7.78
2024-05-09T16:41:52.903Z,7.20
2024-05-09T16:44:26.645Z,6.22
2024-05-09T16:47:00.268Z,6.85
2024-05-09T16:49:41.834Z,6.63
2024-05-09T16:52:19.230Z,7.00
2024-05-09T16:54:52.362Z,7.43
2024-05-09T16:57:25.263Z,6.30
2024-05-09T16:59:58.185Z,6.00
2024-05-09T17:02:32.336Z,5.93
2024-05-09T17:05:05.288Z,6.18
2024-05-09T17:07:38.305Z,6.05
2024-05-09T17:10:19.353Z,5.95
2024-05-09T17:12:59.252Z,6.05
2024-05-09T17:15:32.201Z,6.05
2024-05-09T17:18:09.260Z,6.20
2024-05-09T17:20:41.969Z,6.85
2024-05-09T17:23:17.464Z,6.45
2024-05-09T17:25:50.961Z,5.80
2024-05-09T17:28:26.519Z,6.32
2024-05-09T17:30:59.186Z,6.03
2024-05-09T17:33:35.163Z,6.07
2024-05-09T17:36:08.099Z,6.35
2024-05-09T17:38:42.609Z,6.82
2024-05-09T17:41:15.208Z,6.35
2024-05-09T17:43:48.875Z,6.30
2024-05-09T17:46:21.954Z,6.15
2024-05-09T17:48:56.397Z,6.57
2024-05-09T17:51:29.749Z,6.75
2024-05-09T17:54:03.099Z,6.72
2024-05-09T17:56:35.639Z,6.85
2024-05-09T17:59:10.761Z,7.05
2024-05-09T18:01:43.882Z,7.88
2024-05-09T18:04:16.534Z,7.38
2024-05-09T18:06:49.515Z,7.05
2024-05-09T18:09:22.907Z,7.40
2024-05-09T18:11:56.115Z,8.00
2024-05-09T18:14:28.538Z,7.88
2024-05-09T18:17:00.833Z,7.43
2024-05-09T18:19:33.583Z,7.38
2024-05-09T18:22:06.233Z,8.20
2024-05-09T18:24:38.610Z,13.20
2024-05-09T18:27:11.116Z,12.45
2024-05-09T18:29:43.472Z,11.25
2024-05-09T18:32:19.997Z,10.82
2024-05-09T18:34:55.404Z,9.38
2024-05-09T18:37:28.629Z,8.88
2024-05-09T18:40:01.318Z,8.80
2024-05-09T18:42:33.957Z,8.95
2024-05-09T18:45:09.127Z,9.88
2024-05-09T18:47:44.887Z,9.10
2024-05-09T18:50:24.776Z,9.63
2024-05-09T18:53:04.652Z,10.50
2024-05-09T18:55:37.035Z,10.52
2024-05-09T18:58:10.046Z,10.25
2024-05-09T19:00:45.402Z,10.52
2024-05-09T19:03:20.701Z,9.98
2024-05-09T19:05:56.537Z,9.30
2024-05-09T19:08:30.425Z,8.77
2024-05-09T19:11:04.045Z,8.77
2024-05-09T19:13:36.681Z,8.23
2024-05-09T19:16:09.875Z,9.07
2024-05-09T19:18:42.325Z,8.85
2024-05-09T19:21:16.188Z,9.65
2024-05-09T19:23:52.196Z,8.35
2024-05-09T19:26:28.377Z,8.77
2024-05-09T19:29:00.765Z,9.23
2024-05-09T19:31:33.129Z,8.63
2024-05-09T19:34:09.523Z,8.68
2024-05-09T19:36:42.531Z,9.40
2024-05-09T19:39:15.006Z,9.27
2024-05-09T19:41:48.258Z,10.32
2024-05-09T19:44:23.954Z,9.80
2024-05-09T19:46:56.242Z,10.18
2024-05-09T19:49:29.041Z,9.63
2024-05-09T19:52:07.430Z,8.95
2024-05-09T19:54:42.356Z,9.05
2024-05-09T19:57:37.324Z,8.68
2024-05-09T20:00:21.466Z,8.55
2024-05-09T20:02:54.928Z,8.20
2024-05-09T20:05:28.603Z,7.82
2024-05-09T20:08:01.716Z,7.65
2024-05-09T20:10:35.789Z,6.90
2024-05-09T20:13:09.764Z,6.93
2024-05-09T20:15:42.763Z,6.72
2024-05-09T20:18:15.534Z,6.97
2024-05-09T20:20:50.641Z,6.60
2024-05-09T20:23:24.725Z,6.68
2024-05-09T20:25:57.172Z,6.88
2024-05-09T20:28:29.552Z,6.40
2024-05-09T20:31:01.913Z,6.65
2024-05-09T20:33:36.296Z,6.35
2024-05-09T20:36:09.103Z,5.55
2024-05-09T20:38:41.493Z,5.75
2024-05-09T20:41:13.926Z,5.68
2024-05-09T20:43:46.349Z,5.93
2024-05-09T20:46:18.964Z,6.63
2024-05-09T20:48:51.647Z,5.97
2024-05-09T20:51:27.756Z,6.15
2024-05-09T20:54:01.488Z,6.43
2024-05-09T20:56:34.056Z,6.97
2024-05-09T20:59:07.260Z,6.43
2024-05-09T21:01:39.803Z,7.65
2024-05-09T21:04:12.478Z,8.05
2024-05-09T21:06:45.047Z,8.95
2024-05-09T21:09:17.555Z,9.18
2024-05-09T21:11:49.920Z,8.25
2024-05-09T21:14:24.241Z,9.15
2024-05-09T21:16:56.635Z,9.20
2024-05-09T21:19:29.638Z,9.30
2024-05-09T21:22:02.420Z,9.15
2024-05-09T21:24:35.182Z,10.52
2024-05-09T21:27:08.456Z,11.10
2024-05-09T21:29:41.198Z,11.27
2024-05-09T21:32:13.604Z,14.15
2024-05-09T21:34:49.235Z,13.73
2024-05-09T21:37:21.709Z,12.35
2024-05-09T21:39:54.122Z,13.73
2024-05-09T21:42:26.746Z,14.52
2024-05-09T21:44:59.061Z,14.13
2024-05-09T21:47:31.505Z,13.27
2024-05-09T21:50:18.556Z,13.27
2024-05-09T21:52:56.164Z,12.85
2024-05-09T21:55:28.453Z,12.32
2024-05-09T21:58:01.899Z,13.65
2024-05-09T22:00:38.476Z,14.50
2024-05-09T22:03:12.342Z,14.38
2024-05-09T22:05:49.387Z,17.92
2024-05-09T22:08:22.106Z,14.55
2024-05-09T22:10:54.793Z,14.02
2024-05-09T22:13:27.799Z,13.60
2024-05-09T22:16:00.557Z,12.02
2024-05-09T22:18:33.085Z,10.75
2024-05-09T22:21:05.907Z,9.68
2024-05-09T22:23:38.366Z,8.23
2024-05-09T22:26:11.153Z,8.45
2024-05-09T22:28:43.510Z,6.88
2024-05-09T22:31:15.989Z,11.35
2024-05-09T22:33:49.089Z,5.43
2024-05-09T22:36:21.716Z,6.35
2024-05-09T22:38:54.210Z,5.78
2024-05-09T22:41:29.838Z,5.93
2024-05-09T22:44:03.949Z,5.20
2024-05-09T22:46:37.525Z,4.38
2024-05-09T22:49:13.813Z,4.38
2024-05-09T22:51:46.433Z,5.22
2024-05-09T22:54:19.146Z,4.63
2024-05-09T22:56:51.522Z,5.13
2024-05-09T22:59:24.182Z,5.15
2024-05-09T23:01:57.006Z,4.75
2024-05-09T23:04:29.994Z,5.60
2024-05-09T23:07:02.992Z,4.28
2024-05-09T23:09:36.685Z,3.70
2024-05-09T23:12:09.731Z,2.45
2024-05-09T23:14:42.591Z,3.45
2024-05-09T23:17:15.973Z,2.85
2024-05-09T23:19:48.512Z,2.70
2024-05-09T23:22:21.445Z,2.58
2024-05-09T23:24:54.177Z,3.58
2024-05-09T23:27:27.277Z,2.83
2024-05-09T23:30:00.195Z,3.88
2024-05-09T23:32:33.428Z,6.85
2024-05-09T23:35:06.410Z,4.13
2024-05-09T23:37:39.605Z,4.63
2024-05-09T23:40:18.251Z,3.95
2024-05-09T23:42:51.252Z,3.67
2024-05-09T23:45:23.746Z,24.40
2024-05-09T23:47:56.525Z,3.28
2024-05-09T23:50:35.914Z,2.72
2024-05-09T23:53:11.271Z,3.08
2024-05-09T23:55:44.114Z,3.28
2024-05-09T23:58:16.763Z,3.63
